Latest Weather Observations for Minlaton Airport

IDS60801

Issued at 5:35 am CST Wednesday 1 October 2014 (issued every 30 minutes, with the page automatically refreshed every 10 minutes)

About weather observations | Map of weather stations | Latest weather observations for SA | Other Formats
Station Details ID: 022031 Name: MINLATON AERO Lat: -34.75 Lon: 137.53 Height: 32.0 m
Data from the previous 72 hours. | See also: Recent months at Minlaton Airport
Date/Time
CST
Temp
°C
App
Temp
°C
Dew
Point
Rel
Hum
%
Delta-T
°C
Wind Press
QNH
hPa
Press
MSL
hPa
Rain
since 9 am
mm
Dir
 
Spd
km/h
Gust
km/h
Spd
kts
Gust
kts
01/05:30am 6.3 1.9 4.6 89 0.7 SSE 17 19 9 10 1025.9 1025.9 0.0
01/05:00am 6.6 2.6 4.9 89 0.7 SSE 15 17 8 9 1025.4 1025.4 0.0
01/04:30am 6.7 2.8 5.2 90 0.7 SSE 15 17 8 9 1024.9 1024.9 0.0
01/04:00am 5.5 1.8 4.3 92 0.5 SSE 13 15 7 8 1024.6 1024.6 0.0
01/03:30am 5.0 0.8 3.7 91 0.5 SSE 15 17 8 9 1024.4 1024.4 0.0
01/03:00am 5.6 1.8 4.1 90 0.6 SSE 13 15 7 8 1024.2 1024.2 0.0
01/02:30am 6.5 2.5 5.0 90 0.7 S 15 15 8 8 1024.2 1024.2 0.0
01/02:00am 6.4 2.0 4.9 90 0.7 S 17 17 9 9 1024.1 1024.1 0.0
01/01:30am 6.4 2.4 4.7 89 0.7 S 15 15 8 8 1024.1 1024.1 0.0
01/01:00am 7.1 3.4 4.6 84 1.1 S 13 15 7 8 1024.0 1024.0 0.0
01/12:30am 9.1 5.3 5.8 80 1.5 SSW 15 19 8 10 1024.0 1024.0 0.0
01/12:00am 11.6 7.0 6.3 70 2.5 SSW 20 26 11 14 1023.7 1023.7 0.0
 
Date/Time
CST
Temp
°C
App
Temp
°C
Dew
Point
Rel
Hum
%
Delta-T
°C
Wind Press
QNH
hPa
Press
MSL
hPa
Rain
since 9 am
mm
Dir
 
Spd
km/h
Gust
km/h
Spd
kts
Gust
kts
30/11:30pm 11.6 7.7 6.9 73 2.2 SW 17 28 9 15 1023.5 1023.5 0.0
30/11:00pm 8.5 5.0 5.4 81 1.4 SW 13 17 7 9 1023.4 1023.4 0.0
30/10:30pm 8.9 5.9 5.8 81 1.4 SSW 11 13 6 7 1023.2 1023.2 0.0
30/10:00pm 9.7 6.3 6.1 78 1.7 SSW 13 17 7 9 1023.0 1023.0 0.0
30/09:30pm 11.1 6.7 6.5 73 2.2 SW 19 24 10 13 1022.8 1022.8 0.0
30/09:00pm 11.9 6.9 6.6 70 2.5 SW 22 30 12 16 1022.4 1022.4 0.0
30/08:30pm 13.0 7.5 7.7 70 2.6 SW 26 35 14 19 1022.2 1022.2 0.0
30/08:00pm 12.6 8.0 8.1 74 2.2 SW 22 30 12 16 1021.7 1021.7 0.0
30/07:30pm 12.4 7.9 8.5 77 1.9 SW 22 33 12 18 1021.2 1021.2 0.0
30/07:00pm 12.3 8.4 9.5 83 1.4 SW 20 28 11 15 1020.8 1020.8 0.0
30/06:30pm 12.8 7.6 10.3 85 1.3 SW 28 41 15 22 1020.1 1020.1 0.0
30/06:18pm 14.3 8.0 9.1 71 2.7 WSW 32 50 17 27 1019.8 1019.8 0.0
30/06:00pm 14.7 8.7 8.6 67 3.1 WSW 30 39 16 21 1019.5 1019.5 0.0
30/05:30pm 15.3 9.0 8.8 65 3.3 SW 32 44 17 24 1019.1 1019.1 0.0
30/05:00pm 16.3 8.9 8.3 59 4.1 WSW 37 48 20 26 1018.5 1018.5 0.0
30/04:30pm 16.9 10.1 9.3 61 3.9 WSW 35 46 19 25 1018.1 1018.1 0.0
30/04:00pm 17.6 10.2 8.2 54 4.8 WSW 37 50 20 27 1017.7 1017.7 0.0
30/03:30pm 17.9 10.4 7.9 52 5.1 WSW 37 56 20 30 1017.2 1017.2 0.0
30/03:00pm 17.4 9.3 8.8 57 4.4 WSW 41 54 22 29 1016.9 1016.9 0.0
30/02:30pm 18.3 10.1 8.3 52 5.1 WSW 41 56 22 30 1016.6 1016.6 0.0
30/02:00pm 18.5 11.2 10.1 58 4.5 WSW 39 52 21 28 1016.6 1016.6 0.0
30/01:30pm 18.1 10.9 10.7 62 4.0 WSW 39 50 21 27 1016.5 1016.5 0.0
30/01:02pm 18.6 10.6 10.4 59 4.4 WSW 43 61 23 33 1016.4 1016.4 0.0
30/01:00pm 18.2 10.0 10.3 60 4.2 WSW 44 61 24 33 1016.3 1016.3 0.0
30/12:30pm 19.1 11.5 10.6 58 4.6 W 41 59 22 32 1016.2 1016.2 0.0
30/12:00pm 19.2 12.1 12.2 64 3.9 W 41 54 22 29 1016.0 1016.0 0.0
30/11:30am 18.6 13.1 11.9 65 3.7 W 32 43 17 23 1015.7 1015.7 0.0
30/11:00am 19.8 14.3 12.6 63 4.1 WNW 33 46 18 25 1015.4 1015.4 0.0
30/10:30am 18.8 12.9 12.5 67 3.5 WNW 35 48 19 26 1015.2 1015.2 0.0
30/10:00am 18.6 12.3 12.4 67 3.5 WNW 37 50 20 27 1015.2 1015.2 0.0
30/09:30am 18.0 11.2 12.0 68 3.3 WNW 39 48 21 26 1014.7 1014.7 0.0
30/09:00am 18.0 11.9 11.6 66 3.5 WNW 35 46 19 25 1014.4 1014.4 0.0
30/08:30am 17.4 10.8 11.2 67 3.4 WNW 37 50 20 27 1013.9 1013.9 0.0
30/08:00am 17.2 10.6 11.2 68 3.2 WNW 37 46 20 25 1013.9 1013.9 0.0
30/07:44am 16.8 10.0 10.6 67 3.3 WNW 37 56 20 30 1013.7 1013.7 0.0
30/07:30am 16.5 10.1 10.8 69 3.0 WNW 35 46 19 25 1013.5 1013.5 0.0
30/07:00am 15.5 10.2 11.3 76 2.3 NW 30 39 16 21 1012.9 1012.9 0.0
30/06:30am 14.1 9.7 11.6 85 1.3 NNW 26 35 14 19 1012.1 1012.1 0.0
30/06:00am 13.1 9.6 12.2 94 0.5 NNW 22 32 12 17 1012.0 1012.0 0.0
30/05:30am 12.9 10.4 12.3 96 0.3 NNW 17 20 9 11 1012.1 1012.1 0.0
30/05:00am 10.6 7.0 9.8 95 0.4 N 19 22 10 12 1011.7 1011.7 0.0
30/04:30am 10.8 6.7 10.0 95 0.4 N 22 28 12 15 1011.5 1011.5 0.0
30/04:00am 10.4 6.7 9.6 95 0.4 N 19 24 10 13 1011.3 1011.3 0.0
30/03:30am 9.3 5.7 8.4 94 0.4 N 17 20 9 11 1011.2 1011.2 0.0
30/03:00am 10.2 6.5 9.4 95 0.4 N 19 20 10 11 1011.3 1011.3 0.0
30/02:30am 10.4 6.7 9.6 95 0.4 N 19 20 10 11 1011.3 1011.3 0.0
30/02:00am 10.6 7.0 9.8 95 0.4 N 19 20 10 11 1011.7 1011.7 0.0
30/01:30am 10.3 7.0 9.5 95 0.4 NNE 17 20 9 11 1012.1 1012.1 0.0
30/01:00am 9.8 6.7 9.0 95 0.4 NNE 15 17 8 9 1012.8 1012.8 0.0
30/12:30am 9.5 6.3 8.6 94 0.4 NNE 15 15 8 8 1013.2 1013.2 0.0
30/12:00am 9.6 7.6 8.5 93 0.5 N 9 11 5 6 1013.7 1013.7 0.0
 
Date/Time
CST
Temp
°C
App
Temp
°C
Dew
Point
Rel
Hum
%
Delta-T
°C
Wind Press
QNH
hPa
Press
MSL
hPa
Rain
since 9 am
mm
Dir
 
Spd
km/h
Gust
km/h
Spd
kts
Gust
kts
29/11:30pm 9.9 7.9 8.8 93 0.5 N 9 11 5 6 1014.1 1014.1 0.0
29/11:00pm 11.3 8.5 10.0 92 0.7 NW 15 17 8 9 1014.4 1014.4 0.0
29/10:30pm 11.5 8.9 10.6 94 0.5 WNW 15 17 8 9 1014.8 1014.8 0.0
29/10:00pm 11.4 9.8 10.3 93 0.6 NNW 9 11 5 6 1014.9 1014.9 0.0
29/09:30pm 11.2 8.8 9.9 92 0.7 NW 13 15 7 8 1015.1 1015.1 0.0
29/09:00pm 11.0 8.9 9.6 91 0.7 NW 11 13 6 7 1015.0 1015.0 0.0
29/08:30pm 11.3 8.8 9.7 90 0.8 WNW 13 15 7 8 1015.0 1015.0 0.0
29/08:00pm 11.8 9.4 10.2 90 0.8 NW 13 15 7 8 1014.7 1014.7 0.0
29/07:30pm 11.7 8.7 9.4 86 1.2 NW 15 17 8 9 1014.4 1014.4 0.0
29/07:00pm 12.9 10.2 10.4 85 1.3 NW 15 15 8 8 1014.2 1014.2 0.0
29/06:30pm 13.8 11.3 11.0 83 1.5 NW 15 17 8 9 1014.0 1014.0 0.0
29/06:00pm 16.0 14.3 12.4 79 2.0 NW 13 17 7 9 1013.7 1013.7 0.0
29/05:30pm 17.3 14.6 11.6 69 3.1 NW 17 20 9 11 1013.3 1013.3 0.0
29/05:00pm 18.2 15.4 11.5 65 3.7 NW 17 20 9 11 1013.2 1013.2 0.0
29/04:30pm 19.0 16.0 10.8 59 4.4 WNW 17 20 9 11 1013.0 1013.0 0.0
29/04:00pm 20.2 17.6 10.6 54 5.2 WNW 15 22 8 12 1012.8 1012.8 0.0
29/03:30pm 20.3 17.5 10.1 52 5.5 NW 15 20 8 11 1012.7 1012.7 0.0
29/03:00pm 20.1 16.5 9.9 52 5.5 NW 19 24 10 13 1013.0 1013.0 0.0
29/02:30pm 20.2 16.4 9.2 49 5.8 NW 19 24 10 13 1013.3 1013.3 0.0
29/02:00pm 20.1 15.9 9.9 52 5.5 NW 22 30 12 16 1013.8 1013.8 0.0
29/01:30pm 19.6 15.6 10.6 56 4.9 NW 22 30 12 16 1014.2 1014.2 0.0
29/01:00pm 19.8 15.7 11.6 59 4.5 WNW 24 32 13 17 1014.5 1014.5 0.0
29/12:30pm 18.8 14.1 11.9 64 3.8 WNW 28 35 15 19 1014.8 1014.8 0.0
29/12:00pm 19.3 15.4 12.1 63 4.0 WNW 24 33 13 18 1015.1 1015.1 0.0
29/11:30am 19.2 14.9 12.0 63 4.0 NW 26 35 14 19 1015.4 1015.4 0.0
29/11:00am 18.2 13.7 11.5 65 3.7 NW 26 35 14 19 1015.7 1015.7 0.0
29/10:30am 17.6 13.2 11.8 69 3.2 NNW 26 33 14 18 1016.0 1016.0 0.0
29/10:00am 17.6 13.4 12.3 71 2.9 NW 26 32 14 17 1016.0 1016.0 0.0
29/09:30am 17.3 13.4 12.0 71 2.9 NW 24 30 13 16 1016.1 1016.1 0.0
29/09:00am 17.2 13.6 12.9 76 2.4 NW 24 32 13 17 1016.1 1016.1 0.0
29/08:30am 17.0 13.5 12.3 74 2.6 NW 22 32 12 17 1015.7 1015.7 0.0
29/08:00am 16.4 13.2 12.0 75 2.4 WNW 20 32 11 17 1015.3 1015.3 0.0
29/07:30am 15.4 12.9 12.2 81 1.7 WNW 17 24 9 13 1015.1 1015.1 0.0
29/07:00am 13.8 11.8 12.7 93 0.6 NW 15 20 8 11 1015.0 1015.0 0.0
29/06:30am 12.3 10.1 10.9 91 0.7 WNW 13 15 7 8 1014.7 1014.7 0.0
29/06:00am 12.6 9.7 11.0 90 0.8 W 17 20 9 11 1014.4 1014.4 0.0
29/05:30am 13.0 10.1 11.1 88 1.0 W 17 24 9 13 1014.5 1014.5 0.0
29/05:00am 13.4 9.6 11.1 86 1.2 WSW 22 30 12 16 1013.6 1013.6 0.0
29/04:30am 13.6 9.9 11.5 87 1.1 WSW 22 30 12 16 1013.5 1013.5 0.0
29/04:00am 13.7 9.3 11.6 87 1.1 W 26 39 14 21 1013.4 1013.4 0.0
29/03:30am 13.8 9.0 11.5 86 1.2 W 28 37 15 20 1013.4 1013.4 0.0
29/03:00am 13.8 9.0 11.5 86 1.2 W 28 39 15 21 1013.4 1013.4 0.0
29/02:30am 13.7 9.6 11.6 87 1.1 W 24 32 13 17 1013.9 1013.9 0.0
29/02:00am 13.6 9.5 11.3 86 1.2 W 24 30 13 16 1014.0 1014.0 0.0
29/01:30am 13.6 10.2 11.3 86 1.2 W 20 30 11 16 1014.3 1014.3 0.0
29/01:00am 13.9 10.2 11.6 86 1.2 W 22 30 12 16 1014.7 1014.7 0.0
29/12:30am 14.2 9.8 11.7 85 1.3 W 26 32 14 17 1015.1 1015.1 0.0
29/12:00am 14.2 10.1 11.5 84 1.4 W 24 32 13 17 1015.2 1015.2 0.0
 
Date/Time
CST
Temp
°C
App
Temp
°C
Dew
Point
Rel
Hum
%
Delta-T
°C
Wind Press
QNH
hPa
Press
MSL
hPa
Rain
since 9 am
mm
Dir
 
Spd
km/h
Gust
km/h
Spd
kts
Gust
kts
28/11:30pm 14.1 10.7 11.4 84 1.4 W 20 26 11 14 1015.2 1015.2 0.0
28/11:00pm 14.2 10.1 11.4 83 1.5 W 24 32 13 17 1015.0 1015.0 0.0
28/10:30pm 13.9 10.7 11.1 83 1.5 WNW 19 24 10 13 1015.2 1015.2 0.0
28/10:00pm 14.4 10.1 10.6 78 2.0 W 24 32 13 17 1015.0 1015.0 0.0
28/09:30pm 13.9 10.6 10.9 82 1.6 WNW 19 22 10 12 1014.8 1014.8 0.0
28/09:00pm 14.5 11.0 10.9 79 1.9 WNW 20 32 11 17 1014.2 1014.2 0.0
28/08:30pm 14.8 10.3 11.4 80 1.8 W 26 35 14 19 1013.7 1013.7 0.0
28/08:00pm 14.9 9.9 11.1 78 2.0 W 28 37 15 20 1013.4 1013.4 0.0
28/07:30pm 15.0 10.2 11.6 80 1.8 W 28 39 15 21 1013.1 1013.1 0.0
28/07:00pm 15.0 10.6 11.6 80 1.8 WSW 26 37 14 20 1012.3 1012.3 0.0
28/06:30pm 15.0 10.1 11.2 78 2.0 WSW 28 37 15 20 1011.7 1011.7 0.0
28/06:00pm 16.0 10.8 11.6 75 2.4 WSW 30 43 16 23 1011.0 1011.0 0.0
28/05:30pm 16.8 10.9 11.3 70 3.0 WSW 33 46 18 25 1010.4 1010.4 0.0
28/05:00pm 17.9 12.8 11.9 68 3.3 WSW 30 41 16 22 1010.1 1010.1 0.0
28/04:30pm 18.2 12.4 11.5 65 3.7 WSW 33 46 18 25 1009.7 1009.7 0.0
28/04:00pm 19.0 12.6 10.6 58 4.5 WSW 35 54 19 29 1009.0 1009.0 0.0
28/03:54pm 19.4 12.8 11.4 60 4.4 WSW 37 56 20 30 1008.9 1008.9 0.0
28/03:30pm 19.6 13.1 11.6 60 4.4 WSW 37 48 20 26 1008.7 1008.7 0.0
28/03:00pm 19.8 12.9 10.2 54 5.2 WSW 37 50 20 27 1008.4 1008.4 0.0
28/02:30pm 20.4 13.4 11.3 56 5.0 WSW 39 52 21 28 1008.2 1008.2 0.0
28/02:20pm 20.8 14.1 10.9 53 5.4 WSW 37 57 20 31 1008.1 1008.1 0.0
28/02:00pm 21.4 15.0 10.6 50 5.9 WSW 35 46 19 25 1007.8 1007.8 0.0
28/01:30pm 25.2 18.5 8.2 34 9.1 WNW 33 46 18 25 1007.4 1007.4 0.0
28/01:00pm 25.9 19.7 8.0 32 9.6 NW 30 43 16 23 1007.2 1007.2 0.0
28/12:30pm 26.2 20.3 7.3 30 10.0 NNW 28 41 15 22 1007.2 1007.2 0.0
28/12:00pm 24.8 18.3 8.3 35 8.9 NW 32 43 17 23 1007.7 1007.7 0.0
28/11:30am 26.7 18.8 6.2 27 10.7 NNW 37 50 20 27 1007.8 1007.8 0.0
28/11:00am 26.2 18.7 6.3 28 10.4 NNW 35 48 19 26 1007.7 1007.7 0.0
28/10:30am 25.1 17.0 6.8 31 9.6 NNW 39 52 21 28 1007.8 1007.8 0.0
28/10:00am 23.9 16.3 7.5 35 8.6 N 37 52 20 28 1007.8 1007.8 0.0
28/09:30am 22.8 15.6 9.2 42 7.3 N 37 50 20 27 1008.3 1008.3 0.0
28/09:18am 22.3 14.7 9.1 43 7.1 NNW 39 57 21 31 1008.5 1008.5 0.0
28/09:00am 21.7 14.2 9.6 46 6.5 NNW 39 52 21 28 1008.5 1008.5 0.0
28/08:31am 21.6 13.5 8.8 44 6.8 NNW 41 59 22 32 1008.5 1008.5 0.0
28/08:30am 21.6 13.2 8.8 44 6.8 NNW 43 59 23 32 1008.5 1008.5 0.0
28/08:00am 21.9 11.6 6.6 37 7.8 N 50 72 27 39 1007.5 1007.5 0.0
28/07:30am 22.2 11.1 4.3 31 8.8 N 52 70 28 38 1006.9 1006.9 0.0
28/07:00am 21.8 10.5 3.5 30 8.8 N 52 70 28 38 1005.4 1005.4 0.0
28/06:30am 21.5 9.8 3.2 30 8.8 N 54 78 29 42 1005.4 1005.4 0.0
28/06:00am 21.7 9.9 2.9 29 9.0 N 54 72 29 39 1005.3 1005.3 0.0

Other Formats:

Comma delimited format used in spreadsheet applications
http://www.bom.gov.au/fwo/IDS60801/IDS60801.95659.axf

JavaScript Object Notation format (JSON) in row-major order
http://www.bom.gov.au/fwo/IDS60801/IDS60801.95659.json